Terminal Aerodrome Forecast
Issued by NWS

Home | Current Version | Previous Version | Text Only | Print | Product List | Glossary On
Versions: 1 2 3 4 5 6 7 8 9 10 11 12 13 14 15 16 17 18 19 20 21
000
FTUS45 KTFX 172300
TAFCTB
TAF
KCTB 172320Z 1800/1824 VRB03KT 1/4SM FZFG VV002
      TEMPO 1803/1807 25007KT 4SM BR BKN008
     FM180700 25009KT P6SM BKN120=

USA.gov is the U.S. government's official web portal to all federal, state and local government web resources and services.